sensor_id;sensor_type;location;lat;lon;timestamp;P1;durP1;ratioP1;P2;durP2;ratioP2
49824;SDS011;35714;55.708;37.478;2023-05-27T00:00:01;11.38;;;7.22;;
49824;SDS011;35714;55.708;37.478;2023-05-27T00:02:35;10.60;;;6.78;;
49824;SDS011;35714;55.708;37.478;2023-05-27T00:05:01;8.68;;;6.05;;
49824;SDS011;35714;55.708;37.478;2023-05-27T00:07:31;9.73;;;6.80;;
49824;SDS011;35714;55.708;37.478;2023-05-27T00:09:57;9.60;;;6.80;;
49824;SDS011;35714;55.708;37.478;2023-05-27T00:12:23;10.63;;;6.72;;
49824;SDS011;35714;55.708;37.478;2023-05-27T00:14:49;9.40;;;6.38;;
49824;SDS011;35714;55.708;37.478;2023-05-27T00:17:14;8.82;;;5.70;;
49824;SDS011;35714;55.708;37.478;2023-05-27T00:19:41;8.10;;;5.47;;
49824;SDS011;35714;55.708;37.478;2023-05-27T00:22:08;9.32;;;6.05;;
49824;SDS011;35714;55.708;37.478;2023-05-27T00:24:34;11.30;;;6.32;;
49824;SDS011;35714;55.708;37.478;2023-05-27T00:27:08;10.85;;;5.45;;
49824;SDS011;35714;55.708;37.478;2023-05-27T00:29:34;9.57;;;5.70;;
49824;SDS011;35714;55.708;37.478;2023-05-27T00:32:02;7.80;;;4.93;;
49824;SDS011;35714;55.708;37.478;2023-05-27T00:34:31;9.32;;;5.60;;
49824;SDS011;35714;55.708;37.478;2023-05-27T00:36:57;7.43;;;5.18;;
49824;SDS011;35714;55.708;37.478;2023-05-27T00:39:23;8.75;;;5.78;;
49824;SDS011;35714;55.708;37.478;2023-05-27T00:41:49;7.82;;;5.40;;
49824;SDS011;35714;55.708;37.478;2023-05-27T00:44:16;8.63;;;5.97;;
49824;SDS011;35714;55.708;37.478;2023-05-27T00:46:47;9.07;;;6.00;;
49824;SDS011;35714;55.708;37.478;2023-05-27T00:49:14;9.55;;;5.70;;
49824;SDS011;35714;55.708;37.478;2023-05-27T00:51:41;9.30;;;5.80;;
49824;SDS011;35714;55.708;37.478;2023-05-27T00:54:07;7.18;;;5.63;;
49824;SDS011;35714;55.708;37.478;2023-05-27T00:56:36;8.15;;;6.07;;
49824;SDS011;35714;55.708;37.478;2023-05-27T00:59:03;9.77;;;6.03;;
49824;SDS011;35714;55.708;37.478;2023-05-27T01:01:29;8.68;;;5.35;;
49824;SDS011;35714;55.708;37.478;2023-05-27T01:03:55;8.52;;;4.95;;
49824;SDS011;35714;55.708;37.478;2023-05-27T01:14:43;9.40;;;5.43;;
49824;SDS011;35714;55.708;37.478;2023-05-27T01:17:11;7.55;;;6.18;;
49824;SDS011;35714;55.708;37.478;2023-05-27T01:19:39;9.25;;;5.97;;
49824;SDS011;35714;55.708;37.478;2023-05-27T01:22:13;9.00;;;5.60;;
49824;SDS011;35714;55.708;37.478;2023-05-27T01:24:41;9.13;;;5.78;;
49824;SDS011;35714;55.708;37.478;2023-05-27T01:27:08;9.50;;;5.13;;
49824;SDS011;35714;55.708;37.478;2023-05-27T01:29:41;6.63;;;5.18;;
49824;SDS011;35714;55.708;37.478;2023-05-27T01:35:27;7.22;;;5.50;;
49824;SDS011;35714;55.708;37.478;2023-05-27T01:37:57;9.60;;;5.50;;
49824;SDS011;35714;55.708;37.478;2023-05-27T01:40:27;9.18;;;5.47;;
49824;SDS011;35714;55.708;37.478;2023-05-27T01:42:56;9.82;;;5.55;;
49824;SDS011;35714;55.708;37.478;2023-05-27T01:45:25;7.80;;;5.10;;
49824;SDS011;35714;55.708;37.478;2023-05-27T01:47:52;11.13;;;5.40;;
49824;SDS011;35714;55.708;37.478;2023-05-27T01:50:18;7.35;;;4.85;;
49824;SDS011;35714;55.708;37.478;2023-05-27T01:52:44;8.23;;;5.22;;
49824;SDS011;35714;55.708;37.478;2023-05-27T01:55:11;8.35;;;5.32;;
49824;SDS011;35714;55.708;37.478;2023-05-27T01:57:37;7.32;;;5.25;;
49824;SDS011;35714;55.708;37.478;2023-05-27T02:00:03;7.95;;;5.25;;
49824;SDS011;35714;55.708;37.478;2023-05-27T02:02:43;7.35;;;4.50;;
49824;SDS011;35714;55.708;37.478;2023-05-27T02:05:10;6.65;;;4.68;;
49824;SDS011;35714;55.708;37.478;2023-05-27T02:07:36;7.80;;;4.93;;
49824;SDS011;35714;55.708;37.478;2023-05-27T02:10:02;8.10;;;5.30;;
49824;SDS011;35714;55.708;37.478;2023-05-27T02:12:30;6.50;;;4.57;;
49824;SDS011;35714;55.708;37.478;2023-05-27T02:14:56;6.18;;;4.32;;
49824;SDS011;35714;55.708;37.478;2023-05-27T02:17:22;10.23;;;4.80;;
49824;SDS011;35714;55.708;37.478;2023-05-27T02:19:50;6.80;;;4.65;;
49824;SDS011;35714;55.708;37.478;2023-05-27T02:22:16;8.98;;;5.25;;
49824;SDS011;35714;55.708;37.478;2023-05-27T02:24:42;7.63;;;4.85;;
49824;SDS011;35714;55.708;37.478;2023-05-27T02:27:08;8.70;;;5.10;;
49824;SDS011;35714;55.708;37.478;2023-05-27T02:29:34;7.40;;;4.53;;
49824;SDS011;35714;55.708;37.478;2023-05-27T02:32:00;6.13;;;4.50;;
49824;SDS011;35714;55.708;37.478;2023-05-27T02:34:26;7.78;;;4.72;;
49824;SDS011;35714;55.708;37.478;2023-05-27T02:36:52;6.72;;;4.55;;
49824;SDS011;35714;55.708;37.478;2023-05-27T02:39:18;8.73;;;5.00;;
49824;SDS011;35714;55.708;37.478;2023-05-27T02:41:44;6.72;;;4.70;;
49824;SDS011;35714;55.708;37.478;2023-05-27T02:44:11;8.52;;;5.13;;
49824;SDS011;35714;55.708;37.478;2023-05-27T02:46:37;6.35;;;4.32;;
49824;SDS011;35714;55.708;37.478;2023-05-27T02:49:03;7.13;;;4.00;;
49824;SDS011;35714;55.708;37.478;2023-05-27T02:51:28;6.38;;;4.60;;
49824;SDS011;35714;55.708;37.478;2023-05-27T02:53:54;8.35;;;5.03;;
49824;SDS011;35714;55.708;37.478;2023-05-27T02:56:21;9.10;;;5.72;;
49824;SDS011;35714;55.708;37.478;2023-05-27T02:58:48;6.50;;;4.20;;
49824;SDS011;35714;55.708;37.478;2023-05-27T03:01:14;6.32;;;3.95;;
49824;SDS011;35714;55.708;37.478;2023-05-27T03:03:39;7.00;;;4.38;;
49824;SDS011;35714;55.708;37.478;2023-05-27T03:06:06;5.25;;;3.95;;
49824;SDS011;35714;55.708;37.478;2023-05-27T03:08:31;6.93;;;3.78;;
49824;SDS011;35714;55.708;37.478;2023-05-27T03:10:57;5.50;;;3.50;;
49824;SDS011;35714;55.708;37.478;2023-05-27T03:13:23;10.85;;;4.18;;
49824;SDS011;35714;55.708;37.478;2023-05-27T03:15:49;5.85;;;3.60;;
49824;SDS011;35714;55.708;37.478;2023-05-27T03:18:15;5.97;;;3.92;;
49824;SDS011;35714;55.708;37.478;2023-05-27T03:20:41;6.28;;;3.40;;
49824;SDS011;35714;55.708;37.478;2023-05-27T03:23:07;6.15;;;3.58;;
49824;SDS011;35714;55.708;37.478;2023-05-27T03:25:33;6.43;;;3.25;;
49824;SDS011;35714;55.708;37.478;2023-05-27T03:28:01;5.85;;;3.38;;
49824;SDS011;35714;55.708;37.478;2023-05-27T03:30:27;5.80;;;3.47;;
49824;SDS011;35714;55.708;37.478;2023-05-27T03:32:54;5.10;;;3.15;;
49824;SDS011;35714;55.708;37.478;2023-05-27T03:35:28;5.55;;;3.00;;
49824;SDS011;35714;55.708;37.478;2023-05-27T03:37:54;8.30;;;3.13;;
49824;SDS011;35714;55.708;37.478;2023-05-27T03:40:19;4.85;;;2.97;;
49824;SDS011;35714;55.708;37.478;2023-05-27T03:42:45;4.80;;;3.10;;
49824;SDS011;35714;55.708;37.478;2023-05-27T03:45:14;7.40;;;3.38;;
49824;SDS011;35714;55.708;37.478;2023-05-27T03:47:40;5.40;;;3.15;;
49824;SDS011;35714;55.708;37.478;2023-05-27T03:50:06;6.00;;;2.85;;
49824;SDS011;35714;55.708;37.478;2023-05-27T03:52:32;5.15;;;2.70;;
49824;SDS011;35714;55.708;37.478;2023-05-27T03:55:01;5.72;;;3.25;;
49824;SDS011;35714;55.708;37.478;2023-05-27T03:57:30;5.78;;;2.95;;
49824;SDS011;35714;55.708;37.478;2023-05-27T03:59:56;8.77;;;2.85;;
49824;SDS011;35714;55.708;37.478;2023-05-27T04:02:21;4.68;;;2.97;;
49824;SDS011;35714;55.708;37.478;2023-05-27T04:04:47;6.07;;;3.00;;
49824;SDS011;35714;55.708;37.478;2023-05-27T04:07:13;8.52;;;3.00;;
49824;SDS011;35714;55.708;37.478;2023-05-27T04:09:38;5.70;;;3.33;;
49824;SDS011;35714;55.708;37.478;2023-05-27T04:12:04;5.90;;;3.00;;
49824;SDS011;35714;55.708;37.478;2023-05-27T04:14:31;6.28;;;3.50;;
49824;SDS011;35714;55.708;37.478;2023-05-27T04:16:57;9.35;;;2.80;;
49824;SDS011;35714;55.708;37.478;2023-05-27T04:19:23;7.10;;;3.67;;
49824;SDS011;35714;55.708;37.478;2023-05-27T04:21:48;6.18;;;3.10;;
49824;SDS011;35714;55.708;37.478;2023-05-27T04:24:14;6.57;;;2.65;;
49824;SDS011;35714;55.708;37.478;2023-05-27T04:26:41;6.70;;;3.13;;
49824;SDS011;35714;55.708;37.478;2023-05-27T04:29:08;6.50;;;2.55;;
49824;SDS011;35714;55.708;37.478;2023-05-27T04:31:37;7.25;;;3.30;;
49824;SDS011;35714;55.708;37.478;2023-05-27T04:34:10;6.82;;;3.33;;
49824;SDS011;35714;55.708;37.478;2023-05-27T04:36:37;7.07;;;2.95;;
49824;SDS011;35714;55.708;37.478;2023-05-27T04:39:08;5.38;;;2.95;;
49824;SDS011;35714;55.708;37.478;2023-05-27T04:41:38;5.22;;;2.60;;
49824;SDS011;35714;55.708;37.478;2023-05-27T04:44:05;4.82;;;2.40;;
49824;SDS011;35714;55.708;37.478;2023-05-27T04:46:36;5.05;;;2.40;;
49824;SDS011;35714;55.708;37.478;2023-05-27T04:49:04;4.68;;;2.17;;
49824;SDS011;35714;55.708;37.478;2023-05-27T04:51:32;5.22;;;2.45;;
49824;SDS011;35714;55.708;37.478;2023-05-27T04:53:57;3.92;;;2.00;;
49824;SDS011;35714;55.708;37.478;2023-05-27T04:56:23;4.97;;;2.17;;
49824;SDS011;35714;55.708;37.478;2023-05-27T04:58:50;5.38;;;2.30;;
49824;SDS011;35714;55.708;37.478;2023-05-27T05:01:21;5.70;;;2.90;;
49824;SDS011;35714;55.708;37.478;2023-05-27T05:03:57;4.95;;;2.30;;
49824;SDS011;35714;55.708;37.478;2023-05-27T05:06:42;4.45;;;2.00;;
49824;SDS011;35714;55.708;37.478;2023-05-27T05:09:08;4.85;;;2.13;;
49824;SDS011;35714;55.708;37.478;2023-05-27T05:11:35;6.10;;;2.67;;
49824;SDS011;35714;55.708;37.478;2023-05-27T05:14:00;6.28;;;2.42;;
49824;SDS011;35714;55.708;37.478;2023-05-27T05:16:26;5.00;;;2.35;;
49824;SDS011;35714;55.708;37.478;2023-05-27T05:18:52;6.55;;;1.90;;
49824;SDS011;35714;55.708;37.478;2023-05-27T05:21:20;5.03;;;1.90;;
49824;SDS011;35714;55.708;37.478;2023-05-27T05:23:46;3.88;;;1.65;;
49824;SDS011;35714;55.708;37.478;2023-05-27T05:26:12;4.93;;;2.03;;
49824;SDS011;35714;55.708;37.478;2023-05-27T05:28:40;5.70;;;1.98;;
49824;SDS011;35714;55.708;37.478;2023-05-27T05:31:07;3.70;;;1.67;;
49824;SDS011;35714;55.708;37.478;2023-05-27T05:33:33;4.03;;;1.90;;
49824;SDS011;35714;55.708;37.478;2023-05-27T05:36:00;4.30;;;2.22;;
49824;SDS011;35714;55.708;37.478;2023-05-27T05:38:36;3.92;;;2.05;;
49824;SDS011;35714;55.708;37.478;2023-05-27T05:41:03;5.38;;;1.90;;
49824;SDS011;35714;55.708;37.478;2023-05-27T05:43:31;5.20;;;1.80;;
49824;SDS011;35714;55.708;37.478;2023-05-27T05:45:57;6.50;;;2.03;;
49824;SDS011;35714;55.708;37.478;2023-05-27T05:48:25;6.10;;;1.70;;
49824;SDS011;35714;55.708;37.478;2023-05-27T05:50:51;4.35;;;1.90;;
49824;SDS011;35714;55.708;37.478;2023-05-27T05:53:17;4.75;;;1.77;;
49824;SDS011;35714;55.708;37.478;2023-05-27T05:55:43;5.90;;;1.60;;
49824;SDS011;35714;55.708;37.478;2023-05-27T05:58:10;4.28;;;2.15;;
49824;SDS011;35714;55.708;37.478;2023-05-27T06:00:36;3.22;;;1.52;;
49824;SDS011;35714;55.708;37.478;2023-05-27T06:03:27;5.07;;;1.88;;
49824;SDS011;35714;55.708;37.478;2023-05-27T06:05:55;4.32;;;1.88;;
49824;SDS011;35714;55.708;37.478;2023-05-27T06:08:21;3.25;;;1.40;;
49824;SDS011;35714;55.708;37.478;2023-05-27T06:10:56;4.45;;;1.70;;
49824;SDS011;35714;55.708;37.478;2023-05-27T06:13:22;7.20;;;2.38;;
49824;SDS011;35714;55.708;37.478;2023-05-27T06:15:50;4.80;;;1.75;;
49824;SDS011;35714;55.708;37.478;2023-05-27T06:18:16;4.53;;;1.88;;
49824;SDS011;35714;55.708;37.478;2023-05-27T06:20:41;6.53;;;2.15;;
49824;SDS011;35714;55.708;37.478;2023-05-27T06:23:07;5.82;;;2.42;;
49824;SDS011;35714;55.708;37.478;2023-05-27T06:25:51;7.88;;;2.03;;
49824;SDS011;35714;55.708;37.478;2023-05-27T06:28:18;5.78;;;2.03;;
49824;SDS011;35714;55.708;37.478;2023-05-27T06:30:43;8.32;;;4.60;;
49824;SDS011;35714;55.708;37.478;2023-05-27T06:33:11;6.60;;;2.33;;
49824;SDS011;35714;55.708;37.478;2023-05-27T06:35:37;9.90;;;4.78;;
49824;SDS011;35714;55.708;37.478;2023-05-27T06:38:03;6.35;;;2.70;;
49824;SDS011;35714;55.708;37.478;2023-05-27T06:40:29;5.28;;;1.90;;
49824;SDS011;35714;55.708;37.478;2023-05-27T06:42:55;7.90;;;2.30;;
49824;SDS011;35714;55.708;37.478;2023-05-27T06:45:39;4.53;;;2.78;;
49824;SDS011;35714;55.708;37.478;2023-05-27T06:48:26;5.20;;;1.88;;
49824;SDS011;35714;55.708;37.478;2023-05-27T06:50:52;5.38;;;1.83;;
49824;SDS011;35714;55.708;37.478;2023-05-27T06:53:17;8.13;;;4.00;;
49824;SDS011;35714;55.708;37.478;2023-05-27T06:55:51;6.18;;;2.70;;
49824;SDS011;35714;55.708;37.478;2023-05-27T06:58:28;7.28;;;1.88;;
49824;SDS011;35714;55.708;37.478;2023-05-27T07:01:00;3.75;;;1.60;;
49824;SDS011;35714;55.708;37.478;2023-05-27T07:03:29;4.10;;;1.35;;
49824;SDS011;35714;55.708;37.478;2023-05-27T07:05:55;4.75;;;2.50;;
49824;SDS011;35714;55.708;37.478;2023-05-27T07:08:24;4.18;;;1.48;;
49824;SDS011;35714;55.708;37.478;2023-05-27T07:11:02;6.82;;;2.97;;
49824;SDS011;35714;55.708;37.478;2023-05-27T07:13:28;4.75;;;1.60;;
49824;SDS011;35714;55.708;37.478;2023-05-27T07:15:54;4.03;;;1.60;;
49824;SDS011;35714;55.708;37.478;2023-05-27T07:18:20;4.15;;;1.67;;
49824;SDS011;35714;55.708;37.478;2023-05-27T07:20:47;4.82;;;1.55;;
49824;SDS011;35714;55.708;37.478;2023-05-27T07:23:15;3.22;;;1.30;;
49824;SDS011;35714;55.708;37.478;2023-05-27T07:25:44;4.90;;;1.60;;
49824;SDS011;35714;55.708;37.478;2023-05-27T07:28:10;3.92;;;1.40;;
49824;SDS011;35714;55.708;37.478;2023-05-27T07:30:43;4.85;;;1.48;;
49824;SDS011;35714;55.708;37.478;2023-05-27T07:33:10;3.55;;;1.30;;
49824;SDS011;35714;55.708;37.478;2023-05-27T07:35:36;3.05;;;1.38;;
49824;SDS011;35714;55.708;37.478;2023-05-27T07:38:02;6.03;;;1.70;;
49824;SDS011;35714;55.708;37.478;2023-05-27T07:40:28;5.05;;;1.40;;
49824;SDS011;35714;55.708;37.478;2023-05-27T07:42:53;3.92;;;1.67;;
49824;SDS011;35714;55.708;37.478;2023-05-27T07:45:19;4.50;;;1.50;;
49824;SDS011;35714;55.708;37.478;2023-05-27T07:47:47;3.45;;;1.38;;
49824;SDS011;35714;55.708;37.478;2023-05-27T07:50:13;4.25;;;1.70;;
49824;SDS011;35714;55.708;37.478;2023-05-27T07:52:49;3.90;;;1.40;;
49824;SDS011;35714;55.708;37.478;2023-05-27T07:55:21;6.05;;;1.45;;
49824;SDS011;35714;55.708;37.478;2023-05-27T07:57:47;3.10;;;1.38;;
49824;SDS011;35714;55.708;37.478;2023-05-27T08:00:13;3.70;;;1.75;;
49824;SDS011;35714;55.708;37.478;2023-05-27T08:02:59;5.82;;;1.88;;
49824;SDS011;35714;55.708;37.478;2023-05-27T08:05:44;4.07;;;1.52;;
49824;SDS011;35714;55.708;37.478;2023-05-27T08:08:30;4.35;;;1.48;;
49824;SDS011;35714;55.708;37.478;2023-05-27T08:11:20;3.75;;;1.33;;
49824;SDS011;35714;55.708;37.478;2023-05-27T08:14:01;4.43;;;1.67;;
49824;SDS011;35714;55.708;37.478;2023-05-27T08:16:45;3.63;;;1.58;;
49824;SDS011;35714;55.708;37.478;2023-05-27T08:19:22;5.03;;;1.52;;
49824;SDS011;35714;55.708;37.478;2023-05-27T08:21:52;5.47;;;2.15;;
49824;SDS011;35714;55.708;37.478;2023-05-27T08:24:53;5.82;;;2.15;;
49824;SDS011;35714;55.708;37.478;2023-05-27T08:27:54;5.55;;;2.33;;
49824;SDS011;35714;55.708;37.478;2023-05-27T08:30:45;3.60;;;1.63;;
49824;SDS011;35714;55.708;37.478;2023-05-27T08:33:18;3.30;;;1.45;;
49824;SDS011;35714;55.708;37.478;2023-05-27T08:35:44;5.78;;;1.90;;
49824;SDS011;35714;55.708;37.478;2023-05-27T08:38:10;4.50;;;1.83;;
49824;SDS011;35714;55.708;37.478;2023-05-27T08:40:39;3.97;;;1.90;;
49824;SDS011;35714;55.708;37.478;2023-05-27T08:43:05;3.15;;;1.75;;
49824;SDS011;35714;55.708;37.478;2023-05-27T08:45:34;4.38;;;1.70;;
49824;SDS011;35714;55.708;37.478;2023-05-27T08:48:01;9.38;;;2.13;;
49824;SDS011;35714;55.708;37.478;2023-05-27T08:50:34;5.32;;;1.90;;
49824;SDS011;35714;55.708;37.478;2023-05-27T08:53:00;9.95;;;2.40;;
49824;SDS011;35714;55.708;37.478;2023-05-27T08:55:29;4.05;;;1.85;;
49824;SDS011;35714;55.708;37.478;2023-05-27T08:57:56;6.43;;;2.42;;
49824;SDS011;35714;55.708;37.478;2023-05-27T09:00:26;7.20;;;2.08;;
49824;SDS011;35714;55.708;37.478;2023-05-27T09:02:54;15.00;;;2.67;;
49824;SDS011;35714;55.708;37.478;2023-05-27T09:05:26;5.68;;;2.10;;
49824;SDS011;35714;55.708;37.478;2023-05-27T09:07:52;5.43;;;1.70;;
49824;SDS011;35714;55.708;37.478;2023-05-27T09:10:18;5.30;;;2.05;;
49824;SDS011;35714;55.708;37.478;2023-05-27T09:12:44;5.03;;;1.80;;
49824;SDS011;35714;55.708;37.478;2023-05-27T09:15:11;5.78;;;1.85;;
49824;SDS011;35714;55.708;37.478;2023-05-27T09:17:41;3.83;;;1.70;;
49824;SDS011;35714;55.708;37.478;2023-05-27T09:20:10;4.38;;;1.70;;
49824;SDS011;35714;55.708;37.478;2023-05-27T09:22:37;6.45;;;2.22;;
49824;SDS011;35714;55.708;37.478;2023-05-27T09:25:03;6.03;;;1.80;;
49824;SDS011;35714;55.708;37.478;2023-05-27T09:27:30;9.88;;;1.85;;
49824;SDS011;35714;55.708;37.478;2023-05-27T09:29:57;7.05;;;1.70;;
49824;SDS011;35714;55.708;37.478;2023-05-27T09:32:32;4.63;;;1.70;;
49824;SDS011;35714;55.708;37.478;2023-05-27T09:34:58;4.55;;;1.70;;
49824;SDS011;35714;55.708;37.478;2023-05-27T09:37:30;17.05;;;3.53;;
49824;SDS011;35714;55.708;37.478;2023-05-27T09:40:00;3.42;;;1.40;;
49824;SDS011;35714;55.708;37.478;2023-05-27T09:45:20;4.43;;;1.98;;
49824;SDS011;35714;55.708;37.478;2023-05-27T09:47:50;3.97;;;1.85;;
49824;SDS011;35714;55.708;37.478;2023-05-27T09:50:18;5.00;;;1.63;;
49824;SDS011;35714;55.708;37.478;2023-05-27T09:52:45;3.17;;;1.60;;
49824;SDS011;35714;55.708;37.478;2023-05-27T09:55:13;5.78;;;1.60;;
49824;SDS011;35714;55.708;37.478;2023-05-27T09:57:40;6.07;;;1.75;;
49824;SDS011;35714;55.708;37.478;2023-05-27T10:00:07;6.28;;;2.00;;
49824;SDS011;35714;55.708;37.478;2023-05-27T10:02:42;3.25;;;1.50;;
49824;SDS011;35714;55.708;37.478;2023-05-27T10:05:12;8.50;;;2.00;;
49824;SDS011;35714;55.708;37.478;2023-05-27T10:07:45;5.38;;;1.63;;
49824;SDS011;35714;55.708;37.478;2023-05-27T10:10:12;8.10;;;1.90;;
49824;SDS011;35714;55.708;37.478;2023-05-27T10:12:45;10.75;;;2.22;;
49824;SDS011;35714;55.708;37.478;2023-05-27T10:15:27;6.70;;;1.80;;
49824;SDS011;35714;55.708;37.478;2023-05-27T10:17:55;4.85;;;1.67;;
49824;SDS011;35714;55.708;37.478;2023-05-27T10:20:29;8.82;;;1.88;;
49824;SDS011;35714;55.708;37.478;2023-05-27T10:23:08;4.65;;;1.92;;
49824;SDS011;35714;55.708;37.478;2023-05-27T10:25:35;4.20;;;1.85;;
49824;SDS011;35714;55.708;37.478;2023-05-27T10:28:05;8.40;;;2.10;;
49824;SDS011;35714;55.708;37.478;2023-05-27T10:30:41;4.50;;;1.75;;
49824;SDS011;35714;55.708;37.478;2023-05-27T10:33:08;13.27;;;2.45;;
49824;SDS011;35714;55.708;37.478;2023-05-27T10:35:41;9.07;;;2.00;;
49824;SDS011;35714;55.708;37.478;2023-05-27T10:38:17;6.03;;;2.03;;
49824;SDS011;35714;55.708;37.478;2023-05-27T10:40:46;3.20;;;1.67;;
49824;SDS011;35714;55.708;37.478;2023-05-27T10:43:16;4.22;;;1.73;;
49824;SDS011;35714;55.708;37.478;2023-05-27T10:45:43;4.32;;;2.17;;
49824;SDS011;35714;55.708;37.478;2023-05-27T10:48:16;4.50;;;1.35;;
49824;SDS011;35714;55.708;37.478;2023-05-27T10:50:49;6.38;;;1.75;;
49824;SDS011;35714;55.708;37.478;2023-05-27T10:53:17;3.00;;;1.60;;
49824;SDS011;35714;55.708;37.478;2023-05-27T10:55:44;3.10;;;1.45;;
49824;SDS011;35714;55.708;37.478;2023-05-27T10:58:10;5.40;;;1.80;;
49824;SDS011;35714;55.708;37.478;2023-05-27T11:00:36;4.03;;;1.70;;
49824;SDS011;35714;55.708;37.478;2023-05-27T11:03:03;4.90;;;1.98;;
49824;SDS011;35714;55.708;37.478;2023-05-27T11:05:28;3.22;;;1.58;;
49824;SDS011;35714;55.708;37.478;2023-05-27T11:07:58;3.47;;;1.45;;
49824;SDS011;35714;55.708;37.478;2023-05-27T11:10:26;3.90;;;1.73;;
49824;SDS011;35714;55.708;37.478;2023-05-27T11:12:52;4.13;;;1.60;;
49824;SDS011;35714;55.708;37.478;2023-05-27T11:15:18;5.10;;;1.63;;
49824;SDS011;35714;55.708;37.478;2023-05-27T11:17:43;10.30;;;2.58;;
49824;SDS011;35714;55.708;37.478;2023-05-27T11:20:09;5.20;;;1.88;;
49824;SDS011;35714;55.708;37.478;2023-05-27T11:22:35;11.68;;;2.20;;
49824;SDS011;35714;55.708;37.478;2023-05-27T11:25:02;4.75;;;1.90;;
49824;SDS011;35714;55.708;37.478;2023-05-27T11:27:32;4.25;;;1.77;;
49824;SDS011;35714;55.708;37.478;2023-05-27T11:30:05;3.13;;;1.52;;
49824;SDS011;35714;55.708;37.478;2023-05-27T11:32:35;6.78;;;1.90;;
49824;SDS011;35714;55.708;37.478;2023-05-27T11:35:01;4.20;;;1.48;;
49824;SDS011;35714;55.708;37.478;2023-05-27T11:37:33;4.63;;;1.92;;
49824;SDS011;35714;55.708;37.478;2023-05-27T11:39:59;4.65;;;1.70;;
49824;SDS011;35714;55.708;37.478;2023-05-27T11:42:27;6.07;;;2.00;;
49824;SDS011;35714;55.708;37.478;2023-05-27T11:44:54;4.25;;;1.58;;
49824;SDS011;35714;55.708;37.478;2023-05-27T11:47:20;10.50;;;1.67;;
49824;SDS011;35714;55.708;37.478;2023-05-27T11:49:47;3.20;;;1.50;;
49824;SDS011;35714;55.708;37.478;2023-05-27T11:52:13;3.22;;;1.40;;
49824;SDS011;35714;55.708;37.478;2023-05-27T11:54:39;4.25;;;1.85;;
49824;SDS011;35714;55.708;37.478;2023-05-27T11:57:05;27.45;;;2.60;;
49824;SDS011;35714;55.708;37.478;2023-05-27T11:59:36;3.95;;;1.50;;
49824;SDS011;35714;55.708;37.478;2023-05-27T12:02:02;4.35;;;1.20;;
49824;SDS011;35714;55.708;37.478;2023-05-27T12:04:31;6.20;;;2.05;;
49824;SDS011;35714;55.708;37.478;2023-05-27T12:06:57;5.35;;;1.50;;
49824;SDS011;35714;55.708;37.478;2023-05-27T12:09:26;7.90;;;1.75;;
49824;SDS011;35714;55.708;37.478;2023-05-27T12:11:52;13.25;;;1.90;;
49824;SDS011;35714;55.708;37.478;2023-05-27T12:14:20;7.03;;;2.03;;
49824;SDS011;35714;55.708;37.478;2023-05-27T12:16:47;18.35;;;3.33;;
49824;SDS011;35714;55.708;37.478;2023-05-27T12:19:13;5.95;;;1.50;;
49824;SDS011;35714;55.708;37.478;2023-05-27T12:21:39;7.55;;;1.83;;
49824;SDS011;35714;55.708;37.478;2023-05-27T12:24:05;7.47;;;1.60;;
49824;SDS011;35714;55.708;37.478;2023-05-27T12:26:31;3.10;;;1.25;;
49824;SDS011;35714;55.708;37.478;2023-05-27T12:28:57;5.43;;;1.50;;
49824;SDS011;35714;55.708;37.478;2023-05-27T12:31:22;4.05;;;1.80;;
49824;SDS011;35714;55.708;37.478;2023-05-27T12:33:48;10.23;;;2.47;;
49824;SDS011;35714;55.708;37.478;2023-05-27T12:36:14;3.13;;;1.45;;
49824;SDS011;35714;55.708;37.478;2023-05-27T12:38:40;6.82;;;1.40;;
49824;SDS011;35714;55.708;37.478;2023-05-27T12:41:06;10.30;;;2.08;;
49824;SDS011;35714;55.708;37.478;2023-05-27T12:43:32;4.05;;;1.42;;
49824;SDS011;35714;55.708;37.478;2023-05-27T12:45:58;3.88;;;1.77;;
49824;SDS011;35714;55.708;37.478;2023-05-27T12:48:24;4.28;;;1.65;;
49824;SDS011;35714;55.708;37.478;2023-05-27T12:50:50;4.20;;;1.63;;
49824;SDS011;35714;55.708;37.478;2023-05-27T12:53:16;4.15;;;1.50;;
49824;SDS011;35714;55.708;37.478;2023-05-27T12:55:42;3.40;;;1.75;;
49824;SDS011;35714;55.708;37.478;2023-05-27T12:58:11;3.30;;;1.45;;
49824;SDS011;35714;55.708;37.478;2023-05-27T13:00:37;4.18;;;1.50;;
49824;SDS011;35714;55.708;37.478;2023-05-27T13:03:03;6.15;;;1.50;;
49824;SDS011;35714;55.708;37.478;2023-05-27T13:05:29;5.03;;;1.88;;
49824;SDS011;35714;55.708;37.478;2023-05-27T13:07:59;2.97;;;1.38;;
49824;SDS011;35714;55.708;37.478;2023-05-27T13:10:30;5.25;;;1.83;;
49824;SDS011;35714;55.708;37.478;2023-05-27T13:12:57;8.20;;;1.73;;
49824;SDS011;35714;55.708;37.478;2023-05-27T13:15:24;4.13;;;1.67;;
49824;SDS011;35714;55.708;37.478;2023-05-27T13:17:51;4.80;;;1.52;;
49824;SDS011;35714;55.708;37.478;2023-05-27T13:20:18;6.13;;;2.08;;
49824;SDS011;35714;55.708;37.478;2023-05-27T13:22:45;2.85;;;1.35;;
49824;SDS011;35714;55.708;37.478;2023-05-27T13:25:11;3.67;;;1.60;;
49824;SDS011;35714;55.708;37.478;2023-05-27T13:27:38;5.68;;;1.77;;
49824;SDS011;35714;55.708;37.478;2023-05-27T13:30:07;4.80;;;1.45;;
49824;SDS011;35714;55.708;37.478;2023-05-27T13:32:33;6.18;;;1.85;;
49824;SDS011;35714;55.708;37.478;2023-05-27T13:35:00;6.50;;;2.10;;
49824;SDS011;35714;55.708;37.478;2023-05-27T13:37:31;3.10;;;1.38;;
49824;SDS011;35714;55.708;37.478;2023-05-27T13:39:56;4.60;;;1.50;;
49824;SDS011;35714;55.708;37.478;2023-05-27T13:42:24;6.22;;;1.60;;
49824;SDS011;35714;55.708;37.478;2023-05-27T13:44:49;4.90;;;1.60;;
49824;SDS011;35714;55.708;37.478;2023-05-27T13:47:15;21.45;;;3.03;;
49824;SDS011;35714;55.708;37.478;2023-05-27T13:49:41;9.13;;;2.20;;
49824;SDS011;35714;55.708;37.478;2023-05-27T13:52:06;5.82;;;1.60;;
49824;SDS011;35714;55.708;37.478;2023-05-27T13:54:32;8.50;;;1.83;;
49824;SDS011;35714;55.708;37.478;2023-05-27T13:56:58;10.18;;;1.75;;
49824;SDS011;35714;55.708;37.478;2023-05-27T13:59:23;2.92;;;1.48;;
49824;SDS011;35714;55.708;37.478;2023-05-27T14:01:49;4.93;;;1.50;;
49824;SDS011;35714;55.708;37.478;2023-05-27T14:04:15;4.45;;;1.80;;
49824;SDS011;35714;55.708;37.478;2023-05-27T14:06:41;5.47;;;2.03;;
49824;SDS011;35714;55.708;37.478;2023-05-27T14:09:07;4.18;;;1.60;;
49824;SDS011;35714;55.708;37.478;2023-05-27T14:11:33;3.10;;;1.17;;
49824;SDS011;35714;55.708;37.478;2023-05-27T14:13:58;5.10;;;1.50;;
49824;SDS011;35714;55.708;37.478;2023-05-27T14:16:24;4.10;;;1.50;;
49824;SDS011;35714;55.708;37.478;2023-05-27T14:18:50;6.45;;;1.83;;
49824;SDS011;35714;55.708;37.478;2023-05-27T14:21:16;12.77;;;1.77;;
49824;SDS011;35714;55.708;37.478;2023-05-27T14:23:43;5.88;;;2.28;;
49824;SDS011;35714;55.708;37.478;2023-05-27T14:26:09;4.13;;;1.50;;
49824;SDS011;35714;55.708;37.478;2023-05-27T14:28:35;4.80;;;1.60;;
49824;SDS011;35714;55.708;37.478;2023-05-27T14:31:01;6.38;;;1.75;;
49824;SDS011;35714;55.708;37.478;2023-05-27T14:33:27;4.78;;;2.00;;
49824;SDS011;35714;55.708;37.478;2023-05-27T14:35:53;7.75;;;1.90;;
49824;SDS011;35714;55.708;37.478;2023-05-27T14:38:19;2.80;;;1.30;;
49824;SDS011;35714;55.708;37.478;2023-05-27T14:40:46;5.97;;;1.67;;
49824;SDS011;35714;55.708;37.478;2023-05-27T14:43:11;4.35;;;1.75;;
49824;SDS011;35714;55.708;37.478;2023-05-27T14:45:38;11.40;;;2.17;;
49824;SDS011;35714;55.708;37.478;2023-05-27T14:48:05;4.30;;;1.98;;
49824;SDS011;35714;55.708;37.478;2023-05-27T14:50:31;3.67;;;1.60;;
49824;SDS011;35714;55.708;37.478;2023-05-27T14:52:57;5.57;;;1.50;;